Time;durP1;ratioP1;P1;durP2;ratioP2;P2;SDS_P1;SDS_P2;PMS_P1;PMS_P2;Temp;Humidity;BMP_temperature;BMP_pressure;BME280_temperature;BME280_humidity;BME280_pressure;Samples;Min_cycle;Max_cycle;Signal;HPM_P1;HPM_P2
2023/07/21 00:01:00;;;;;;;4.10;2.65;;;;;;;;;;6212840;23;20095;-62
2023/07/21 00:03:26;;;;;;;5.15;3.10;;;;;;;;;;6212847;23;20016;-62
2023/07/21 00:05:52;;;;;;;4.88;3.15;;;;;;;;;;6212421;23;20612;-62
2023/07/21 00:08:18;;;;;;;5.28;2.78;;;;;;;;;;6213095;23;20032;-62
2023/07/21 00:10:44;;;;;;;5.07;2.70;;;;;;;;;;6212892;23;20012;-62
2023/07/21 00:13:11;;;;;;;4.97;2.58;;;;;;;;;;6212208;23;20096;-62
2023/07/21 00:15:37;;;;;;;4.47;3.15;;;;;;;;;;6212461;23;20013;-62
2023/07/21 00:18:03;;;;;;;3.88;2.83;;;;;;;;;;6212841;23;20013;-62
2023/07/21 00:20:30;;;;;;;5.43;3.20;;;;;;;;;;6212236;23;20074;-62
2023/07/21 00:22:56;;;;;;;4.25;3.20;;;;;;;;;;6212449;23;20048;-62
2023/07/21 00:25:22;;;;;;;3.35;2.53;;;;;;;;;;6212618;23;20023;-62
2023/07/21 00:27:48;;;;;;;8.25;2.90;;;;;;;;;;6212306;23;20020;-62
2023/07/21 00:30:14;;;;;;;4.30;2.90;;;;;;;;;;6212344;23;20031;-62
2023/07/21 00:32:40;;;;;;;8.07;3.60;;;;;;;;;;6212477;23;20558;-62
2023/07/21 00:35:08;;;;;;;4.22;2.95;;;;;;;;;;6211629;23;20013;-62
2023/07/21 00:37:38;;;;;;;2.92;2.65;;;;;;;;;;6212234;23;20013;-62
2023/07/21 00:40:04;;;;;;;4.60;3.05;;;;;;;;;;6212485;23;20008;-62
2023/07/21 00:42:31;;;;;;;7.32;3.03;;;;;;;;;;6212057;23;20021;-62
2023/07/21 00:44:57;;;;;;;4.63;3.25;;;;;;;;;;6212217;23;20044;-62
2023/07/21 00:47:27;;;;;;;5.50;3.67;;;;;;;;;;6212573;23;20419;-62
2023/07/21 00:49:53;;;;;;;4.78;3.30;;;;;;;;;;6211989;23;20017;-62
2023/07/21 00:52:19;;;;;;;7.75;3.65;;;;;;;;;;6212068;23;20021;-62
2023/07/21 00:54:46;;;;;;;4.03;2.88;;;;;;;;;;6212400;23;20016;-62
2023/07/21 00:57:12;;;;;;;8.18;3.50;;;;;;;;;;6212092;23;20094;-62
2023/07/21 00:59:38;;;;;;;4.50;3.42;;;;;;;;;;6212560;23;20012;-62
2023/07/21 01:02:05;;;;;;;7.90;3.55;;;;;;;;;;6212552;23;20047;-62
2023/07/21 01:04:31;;;;;;;5.22;4.05;;;;;;;;;;6185554;23;20067;-62
2023/07/21 01:06:58;;;;;;;5.90;3.55;;;;;;;;;;6212470;23;20020;-62
2023/07/21 01:09:25;;;;;;;5.05;3.58;;;;;;;;;;6212568;23;20063;-62
2023/07/21 01:11:52;;;;;;;4.32;3.15;;;;;;;;;;6212034;23;20016;-62
2023/07/21 01:14:18;;;;;;;6.13;3.25;;;;;;;;;;6212314;23;20168;-62
2023/07/21 01:16:45;;;;;;;3.90;3.15;;;;;;;;;;6212462;23;20151;-62
2023/07/21 01:19:15;;;;;;;3.83;3.30;;;;;;;;;;6211718;23;20020;-62
2023/07/21 01:21:41;;;;;;;4.53;3.17;;;;;;;;;;6212410;23;20044;-62
2023/07/21 01:24:10;;;;;;;7.63;3.28;;;;;;;;;;6212448;23;20321;-62
2023/07/21 01:26:37;;;;;;;6.03;3.55;;;;;;;;;;6211913;23;20040;-62
2023/07/21 01:29:08;;;;;;;5.38;3.50;;;;;;;;;;6212462;23;20044;-62
2023/07/21 01:31:35;;;;;;;5.00;4.05;;;;;;;;;;6212062;23;20087;-62
2023/07/21 01:34:01;;;;;;;4.93;3.22;;;;;;;;;;6208831;23;20095;-62
2023/07/21 01:36:28;;;;;;;5.55;3.20;;;;;;;;;;6211960;23;20336;-62
2023/07/21 01:38:54;;;;;;;4.85;3.38;;;;;;;;;;6212310;23;20013;-62
2023/07/21 01:41:21;;;;;;;8.68;3.78;;;;;;;;;;6211699;23;20344;-62
2023/07/21 01:43:48;;;;;;;5.05;3.70;;;;;;;;;;6212343;23;20020;-62
2023/07/21 01:46:14;;;;;;;5.68;3.38;;;;;;;;;;6212034;23;20036;-62
2023/07/21 01:48:40;;;;;;;4.45;3.35;;;;;;;;;;6211732;23;20020;-62
2023/07/21 01:51:06;;;;;;;5.10;3.30;;;;;;;;;;6212085;23;20020;-62
2023/07/21 01:53:34;;;;;;;8.63;3.90;;;;;;;;;;6212042;23;20500;-62
2023/07/21 01:56:03;;;;;;;5.90;4.03;;;;;;;;;;6211750;23;20016;-62
2023/07/21 01:58:29;;;;;;;4.88;4.13;;;;;;;;;;6212262;23;20011;-62
2023/07/21 02:00:56;;;;;;;4.80;3.80;;;;;;;;;;6212474;23;20039;-62
2023/07/21 02:03:23;;;;;;;8.15;4.10;;;;;;;;;;6211638;23;20008;-62
2023/07/21 02:05:49;;;;;;;5.78;3.70;;;;;;;;;;6213273;23;20008;-62
2023/07/21 02:08:15;;;;;;;5.82;4.00;;;;;;;;;;6214066;23;20008;-62
2023/07/21 02:10:42;;;;;;;6.47;4.20;;;;;;;;;;6213529;23;20019;-62
2023/07/21 02:13:09;;;;;;;3.80;3.28;;;;;;;;;;6213885;23;20009;-62
2023/07/21 02:15:35;;;;;;;6.60;3.53;;;;;;;;;;6214162;23;20012;-62
2023/07/21 02:18:02;;;;;;;3.95;3.55;;;;;;;;;;6213425;23;20016;-62
2023/07/21 02:20:28;;;;;;;4.93;3.30;;;;;;;;;;6214018;23;20008;-62
2023/07/21 02:22:56;;;;;;;5.07;3.83;;;;;;;;;;6213273;23;20016;-62
2023/07/21 02:25:22;;;;;;;4.68;3.28;;;;;;;;;;6212995;23;20016;-62
2023/07/21 02:27:48;;;;;;;4.43;3.80;;;;;;;;;;6213857;23;20389;-62
2023/07/21 02:30:14;;;;;;;6.47;3.63;;;;;;;;;;6213407;23;20044;-62
2023/07/21 02:32:40;;;;;;;4.68;3.97;;;;;;;;;;6213084;23;20027;-62
2023/07/21 02:35:08;;;;;;;5.30;3.78;;;;;;;;;;6213829;23;20404;-62
2023/07/21 02:37:34;;;;;;;5.90;3.97;;;;;;;;;;6213258;23;20044;-62
2023/07/21 02:40:00;;;;;;;5.32;3.72;;;;;;;;;;6213313;23;20032;-62
2023/07/21 02:42:26;;;;;;;5.57;3.92;;;;;;;;;;6213568;23;20705;-62
2023/07/21 02:44:52;;;;;;;5.68;4.15;;;;;;;;;;6213547;23;20068;-62
2023/07/21 02:47:19;;;;;;;5.03;3.92;;;;;;;;;;6213049;23;20363;-62
2023/07/21 02:49:45;;;;;;;5.47;3.85;;;;;;;;;;6213618;23;20373;-62
2023/07/21 02:52:11;;;;;;;7.10;3.85;;;;;;;;;;6213043;23;20020;-62
2023/07/21 02:54:37;;;;;;;7.10;4.18;;;;;;;;;;6212943;23;20013;-62
2023/07/21 02:57:03;;;;;;;7.38;4.43;;;;;;;;;;6213270;23;20013;-62
2023/07/21 02:59:29;;;;;;;7.35;3.55;;;;;;;;;;6213633;23;20013;-62
2023/07/21 03:01:56;;;;;;;5.18;3.88;;;;;;;;;;6213247;23;20017;-62
2023/07/21 03:04:23;;;;;;;7.35;4.00;;;;;;;;;;6212815;23;20021;-62
2023/07/21 03:06:49;;;;;;;4.47;3.53;;;;;;;;;;6213091;23;20075;-62
2023/07/21 03:09:15;;;;;;;6.00;3.88;;;;;;;;;;6213353;23;20017;-62
2023/07/21 03:11:41;;;;;;;5.40;4.18;;;;;;;;;;6212849;23;20043;-62
2023/07/21 03:14:09;;;;;;;6.65;4.30;;;;;;;;;;6213413;23;20013;-62
2023/07/21 03:16:35;;;;;;;6.00;3.63;;;;;;;;;;6212781;23;20008;-62
2023/07/21 03:19:01;;;;;;;5.43;3.97;;;;;;;;;;6212353;23;20470;-62
2023/07/21 03:21:28;;;;;;;5.97;4.35;;;;;;;;;;6213566;23;20008;-62
2023/07/21 03:23:55;;;;;;;6.35;4.32;;;;;;;;;;6213133;23;20069;-62
2023/07/21 03:26:21;;;;;;;6.35;4.10;;;;;;;;;;6212859;23;20420;-62
2023/07/21 03:28:47;;;;;;;5.43;4.30;;;;;;;;;;6212755;23;20020;-62
2023/07/21 03:31:13;;;;;;;5.53;4.40;;;;;;;;;;6213216;23;20013;-62
2023/07/21 03:33:39;;;;;;;8.25;4.15;;;;;;;;;;6212387;23;20013;-62
2023/07/21 03:36:06;;;;;;;7.15;4.35;;;;;;;;;;6212951;23;20013;-62
2023/07/21 03:38:33;;;;;;;5.50;4.45;;;;;;;;;;6212832;23;20456;-62
2023/07/21 03:41:03;;;;;;;6.13;4.43;;;;;;;;;;6212470;23;20015;-62
2023/07/21 03:43:29;;;;;;;4.70;3.88;;;;;;;;;;6212968;23;20123;-62
2023/07/21 03:45:59;;;;;;;5.97;3.90;;;;;;;;;;6212807;23;20641;-62
2023/07/21 03:48:26;;;;;;;6.28;4.15;;;;;;;;;;6212634;23;20339;-62
2023/07/21 03:50:57;;;;;;;8.18;4.30;;;;;;;;;;6213027;23;20032;-62
2023/07/21 03:53:23;;;;;;;9.27;4.55;;;;;;;;;;6212362;23;20044;-62
2023/07/21 03:55:49;;;;;;;7.10;4.25;;;;;;;;;;6210977;23;20420;-62
2023/07/21 03:58:15;;;;;;;7.45;4.35;;;;;;;;;;6212999;23;20015;-62
2023/07/21 04:00:42;;;;;;;5.40;4.30;;;;;;;;;;6213106;23;20020;-62
2023/07/21 04:03:11;;;;;;;6.25;4.30;;;;;;;;;;6212279;23;20040;-62
2023/07/21 04:05:37;;;;;;;4.72;4.00;;;;;;;;;;6212875;23;20575;-62
2023/07/21 04:08:03;;;;;;;4.75;4.30;;;;;;;;;;6212908;23;20336;-62
2023/07/21 04:10:30;;;;;;;6.55;3.97;;;;;;;;;;6212439;23;20022;-62
2023/07/21 04:12:56;;;;;;;6.22;4.68;;;;;;;;;;6212783;23;20048;-62
2023/07/21 04:15:23;;;;;;;7.05;4.43;;;;;;;;;;6212775;23;20352;-62
2023/07/21 04:17:49;;;;;;;7.80;4.80;;;;;;;;;;6212405;23;20432;-62
2023/07/21 04:20:15;;;;;;;6.72;4.32;;;;;;;;;;6212823;23;20009;-62
2023/07/21 04:22:41;;;;;;;9.18;4.25;;;;;;;;;;6212600;23;20102;-62
2023/07/21 04:25:07;;;;;;;7.60;4.50;;;;;;;;;;6212145;23;20017;-62
2023/07/21 04:27:33;;;;;;;5.57;4.00;;;;;;;;;;6212447;23;20054;-62
2023/07/21 04:29:59;;;;;;;5.90;3.78;;;;;;;;;;6212984;23;20051;-62
2023/07/21 04:32:25;;;;;;;7.97;4.35;;;;;;;;;;6212646;23;20416;-62
2023/07/21 04:34:51;;;;;;;7.65;4.88;;;;;;;;;;6212857;23;20013;-61
2023/07/21 04:37:18;;;;;;;6.43;4.20;;;;;;;;;;6212608;23;20021;-61
2023/07/21 04:39:44;;;;;;;7.80;4.22;;;;;;;;;;6212244;23;20016;-61
2023/07/21 04:42:10;;;;;;;5.47;4.47;;;;;;;;;;6213068;23;20020;-62
2023/07/21 04:44:36;;;;;;;6.00;5.00;;;;;;;;;;6185955;23;20317;-62
2023/07/21 04:47:05;;;;;;;6.03;4.90;;;;;;;;;;6212045;23;20012;-62
2023/07/21 04:49:34;;;;;;;7.60;4.63;;;;;;;;;;6212837;23;20044;-62
2023/07/21 04:52:00;;;;;;;7.20;4.70;;;;;;;;;;6212959;23;20104;-62
2023/07/21 04:54:26;;;;;;;10.85;4.85;;;;;;;;;;6212468;23;20017;-62
2023/07/21 04:56:52;;;;;;;7.53;4.35;;;;;;;;;;6212955;23;20108;-62
2023/07/21 04:59:19;;;;;;;4.70;4.05;;;;;;;;;;6212697;23;20048;-62
2023/07/21 05:01:46;;;;;;;7.53;4.97;;;;;;;;;;6212102;23;20020;-62
2023/07/21 05:04:14;;;;;;;7.32;4.50;;;;;;;;;;6213035;23;20289;-62
2023/07/21 05:06:43;;;;;;;7.10;4.65;;;;;;;;;;6213136;23;20078;-62
2023/07/21 05:09:13;;;;;;;8.20;4.43;;;;;;;;;;6212655;23;20013;-62
2023/07/21 05:11:39;;;;;;;6.18;4.53;;;;;;;;;;6213089;23;20462;-62
2023/07/21 05:14:05;;;;;;;5.80;4.40;;;;;;;;;;6212893;23;20315;-62
2023/07/21 05:16:37;;;;;;;9.20;5.15;;;;;;;;;;6212378;23;20017;-62
2023/07/21 05:19:06;;;;;;;7.78;4.97;;;;;;;;;;6212873;23;20028;-62
2023/07/21 05:21:32;;;;;;;9.02;4.78;;;;;;;;;;6212888;23;20093;-61
2023/07/21 05:23:58;;;;;;;6.13;4.93;;;;;;;;;;6212055;23;20023;-62
2023/07/21 05:26:24;;;;;;;7.32;4.72;;;;;;;;;;6212895;23;20023;-62
2023/07/21 05:28:52;;;;;;;6.22;4.65;;;;;;;;;;6213017;23;20020;-62
2023/07/21 05:31:19;;;;;;;9.00;4.75;;;;;;;;;;6212362;23;20021;-62
2023/07/21 05:33:45;;;;;;;5.90;4.65;;;;;;;;;;6212573;23;20167;-62
2023/07/21 05:36:11;;;;;;;8.38;4.90;;;;;;;;;;6212436;23;20020;-62
2023/07/21 05:38:37;;;;;;;5.63;4.90;;;;;;;;;;6212361;23;20013;-62
2023/07/21 05:41:06;;;;;;;8.07;5.20;;;;;;;;;;6187248;23;20025;-62
2023/07/21 05:43:32;;;;;;;8.55;5.25;;;;;;;;;;6214635;23;20008;-62
2023/07/21 05:45:59;;;;;;;7.63;4.80;;;;;;;;;;6214157;23;20047;-62
2023/07/21 05:48:25;;;;;;;6.90;4.93;;;;;;;;;;6214806;23;20013;-62
2023/07/21 05:50:52;;;;;;;9.02;5.10;;;;;;;;;;6214880;23;20433;-62
2023/07/21 05:53:19;;;;;;;6.55;4.85;;;;;;;;;;6214023;23;20019;-62
2023/07/21 05:55:46;;;;;;;8.45;4.90;;;;;;;;;;6214626;23;20020;-62
2023/07/21 05:58:12;;;;;;;5.90;4.05;;;;;;;;;;6214541;23;20490;-62
2023/07/21 06:00:39;;;;;;;5.05;3.92;;;;;;;;;;6214223;23;20012;-62
2023/07/21 06:03:05;;;;;;;9.35;4.07;;;;;;;;;;6214527;23;20009;-62
2023/07/21 06:05:32;;;;;;;6.53;4.22;;;;;;;;;;6214373;23;20027;-62
2023/07/21 06:07:58;;;;;;;6.80;3.40;;;;;;;;;;6212495;23;20013;-63
2023/07/21 06:10:24;;;;;;;9.82;3.15;;;;;;;;;;6213259;23;20036;-63
2023/07/21 06:12:50;;;;;;;4.50;2.70;;;;;;;;;;6213727;23;20027;-63
2023/07/21 06:15:16;;;;;;;3.08;2.60;;;;;;;;;;6213498;23;20020;-62
2023/07/21 06:17:43;;;;;;;4.05;2.47;;;;;;;;;;6213740;23;20103;-62
2023/07/21 06:20:12;;;;;;;5.15;2.80;;;;;;;;;;6213996;23;20063;-62
2023/07/21 06:22:38;;;;;;;6.93;2.90;;;;;;;;;;6213507;23;20442;-62
2023/07/21 06:25:05;;;;;;;5.90;3.05;;;;;;;;;;6214012;23;20297;-62
2023/07/21 06:27:31;;;;;;;4.38;2.58;;;;;;;;;;6214009;23;20103;-64
2023/07/21 06:29:57;;;;;;;3.78;2.72;;;;;;;;;;6213192;23;20100;-64
2023/07/21 06:32:23;;;;;;;6.38;2.58;;;;;;;;;;6214009;23;20048;-64
2023/07/21 06:34:50;;;;;;;4.10;2.90;;;;;;;;;;6213650;23;20739;-62
2023/07/21 06:37:16;;;;;;;5.00;2.90;;;;;;;;;;6213233;23;20023;-63
2023/07/21 06:39:42;;;;;;;4.65;2.70;;;;;;;;;;6213625;23;20020;-63
2023/07/21 06:42:08;;;;;;;8.98;2.80;;;;;;;;;;6213440;23;20019;-64
2023/07/21 06:44:34;;;;;;;8.10;3.58;;;;;;;;;;6212985;23;20420;-64
2023/07/21 06:47:01;;;;;;;5.78;2.53;;;;;;;;;;6213396;23;20100;-64
2023/07/21 06:49:27;;;;;;;5.15;2.85;;;;;;;;;;6214140;23;20091;-64
2023/07/21 06:51:53;;;;;;;4.72;2.25;;;;;;;;;;6213114;23;20021;-64
2023/07/21 06:54:19;;;;;;;3.83;2.50;;;;;;;;;;6214004;23;20022;-64
2023/07/21 06:56:45;;;;;;;4.25;2.42;;;;;;;;;;6186692;23;20017;-63
2023/07/21 06:59:11;;;;;;;6.22;1.92;;;;;;;;;;6213302;23;20016;-64
2023/07/21 07:01:37;;;;;;;3.83;2.05;;;;;;;;;;6213389;23;20013;-63
2023/07/21 07:04:03;;;;;;;3.58;2.42;;;;;;;;;;6213557;23;20015;-63
2023/07/21 07:06:29;;;;;;;3.85;2.53;;;;;;;;;;6211173;23;20020;-63
2023/07/21 07:08:55;;;;;;;4.85;2.08;;;;;;;;;;6213449;23;20013;-63
2023/07/21 07:11:22;;;;;;;4.72;2.20;;;;;;;;;;6213811;23;20020;-63
2023/07/21 07:13:48;;;;;;;5.60;2.20;;;;;;;;;;6212681;23;20078;-63
2023/07/21 07:16:14;;;;;;;7.45;2.33;;;;;;;;;;6213383;23;20044;-62
2023/07/21 07:18:40;;;;;;;5.05;2.30;;;;;;;;;;6212852;23;20020;-63
2023/07/21 07:21:07;;;;;;;4.50;2.38;;;;;;;;;;6213427;23;20047;-62
2023/07/21 07:23:33;;;;;;;5.50;2.17;;;;;;;;;;6213468;23;20051;-63
2023/07/21 07:25:59;;;;;;;3.95;2.10;;;;;;;;;;6213518;23;20559;-63
2023/07/21 07:28:25;;;;;;;4.28;2.40;;;;;;;;;;6213236;23;20083;-63
2023/07/21 07:30:51;;;;;;;8.07;2.58;;;;;;;;;;6213007;23;20016;-62
2023/07/21 07:33:17;;;;;;;2.97;2.35;;;;;;;;;;6212993;23;20012;-64
2023/07/21 07:35:47;;;;;;;2.97;2.30;;;;;;;;;;6213020;23;20021;-63
2023/07/21 07:38:13;;;;;;;3.10;2.20;;;;;;;;;;6212073;23;20103;-63
2023/07/21 07:40:39;;;;;;;2.95;1.92;;;;;;;;;;6213076;23;20023;-64
2023/07/21 07:43:05;;;;;;;3.05;2.00;;;;;;;;;;6210105;23;20446;-65
2023/07/21 07:45:32;;;;;;;3.15;1.70;;;;;;;;;;6212422;23;20420;-63
2023/07/21 07:47:58;;;;;;;5.55;2.42;;;;;;;;;;6212447;23;20031;-63
2023/07/21 07:50:24;;;;;;;2.33;2.08;;;;;;;;;;6211451;23;20560;-64
2023/07/21 07:52:50;;;;;;;3.40;1.80;;;;;;;;;;6211956;23;20042;-64
2023/07/21 07:55:17;;;;;;;4.35;2.30;;;;;;;;;;6212580;23;20059;-64
2023/07/21 07:57:43;;;;;;;5.75;2.95;;;;;;;;;;6212352;23;20027;-63
2023/07/21 08:00:13;;;;;;;3.05;2.05;;;;;;;;;;6212053;23;20016;-63
2023/07/21 08:02:39;;;;;;;3.90;1.83;;;;;;;;;;6212139;23;20079;-63
2023/07/21 08:05:05;;;;;;;3.70;2.13;;;;;;;;;;6212012;23;20482;-65
2023/07/21 08:07:32;;;;;;;5.32;1.83;;;;;;;;;;6212128;23;20620;-65
2023/07/21 08:10:00;;;;;;;3.13;1.92;;;;;;;;;;6212472;23;20019;-65
2023/07/21 08:12:26;;;;;;;3.35;2.00;;;;;;;;;;6212640;23;20059;-65
2023/07/21 08:14:54;;;;;;;4.78;2.20;;;;;;;;;;6211700;23;20091;-65
2023/07/21 08:17:20;;;;;;;2.58;2.10;;;;;;;;;;6212437;23;20013;-65
2023/07/21 08:19:46;;;;;;;3.50;1.60;;;;;;;;;;6212781;23;20367;-64
2023/07/21 08:22:12;;;;;;;3.20;1.77;;;;;;;;;;6185048;23;20087;-65
2023/07/21 08:24:38;;;;;;;4.10;1.40;;;;;;;;;;6212623;23;20043;-65
2023/07/21 08:27:04;;;;;;;3.25;1.50;;;;;;;;;;6212307;23;20028;-65
2023/07/21 08:29:30;;;;;;;3.65;1.42;;;;;;;;;;6212242;23;20017;-65
2023/07/21 08:31:56;;;;;;;2.10;1.30;;;;;;;;;;6212159;23;20048;-64
2023/07/21 08:34:22;;;;;;;2.08;1.10;;;;;;;;;;6212233;23;20028;-65
2023/07/21 08:36:48;;;;;;;2.38;1.05;;;;;;;;;;6211276;23;20402;-64
2023/07/21 08:39:14;;;;;;;3.58;0.80;;;;;;;;;;6212290;23;20012;-64
2023/07/21 08:41:45;;;;;;;1.67;1.10;;;;;;;;;;6212481;23;20017;-64
2023/07/21 08:44:11;;;;;;;2.33;1.23;;;;;;;;;;6211110;23;20104;-64
2023/07/21 08:46:37;;;;;;;2.35;0.98;;;;;;;;;;6211780;23;20147;-64
2023/07/21 08:49:06;;;;;;;2.35;1.10;;;;;;;;;;6210739;23;20016;-63
2023/07/21 08:51:32;;;;;;;2.85;1.38;;;;;;;;;;6210556;23;20012;-63
2023/07/21 08:53:58;;;;;;;0.95;0.77;;;;;;;;;;6212182;23;20064;-63
2023/07/21 08:56:24;;;;;;;3.00;1.00;;;;;;;;;;6209617;23;20099;-61
2023/07/21 08:58:50;;;;;;;2.45;1.02;;;;;;;;;;6209765;23;20016;-63
2023/07/21 09:01:17;;;;;;;1.73;1.00;;;;;;;;;;6211331;23;20479;-63
2023/07/21 09:03:46;;;;;;;2.38;0.90;;;;;;;;;;6210284;23;20020;-63
2023/07/21 09:06:14;;;;;;;3.60;1.05;;;;;;;;;;6210149;23;20088;-62
2023/07/21 09:08:40;;;;;;;3.60;1.10;;;;;;;;;;6211596;23;20100;-62
2023/07/21 09:11:08;;;;;;;1.25;1.08;;;;;;;;;;6211700;23;20440;-62
2023/07/21 09:13:34;;;;;;;2.05;1.10;;;;;;;;;;6210787;23;20012;-62
2023/07/21 09:16:01;;;;;;;2.88;1.13;;;;;;;;;;6213194;23;20547;-62
2023/07/21 09:18:31;;;;;;;3.60;1.40;;;;;;;;;;6211349;23;20048;-63
2023/07/21 09:20:57;;;;;;;1.85;1.30;;;;;;;;;;6212736;23;20012;-62
2023/07/21 09:23:25;;;;;;;3.30;1.27;;;;;;;;;;6211497;23;20055;-62
2023/07/21 09:25:53;;;;;;;2.63;1.27;;;;;;;;;;6212568;23;20074;-62
2023/07/21 09:28:20;;;;;;;3.72;1.20;;;;;;;;;;6212083;23;20008;-62
2023/07/21 09:30:51;;;;;;;2.13;1.00;;;;;;;;;;6212430;23;20044;-62
2023/07/21 09:33:20;;;;;;;3.15;1.30;;;;;;;;;;6212111;23;20614;-62
2023/07/21 09:35:46;;;;;;;2.15;1.08;;;;;;;;;;6211441;23;20092;-62
2023/07/21 09:38:13;;;;;;;1.00;0.90;;;;;;;;;;6213334;23;20023;-62
2023/07/21 09:40:45;;;;;;;2.65;1.40;;;;;;;;;;6211363;23;20460;-62
2023/07/21 09:43:11;;;;;;;2.92;1.10;;;;;;;;;;6211667;23;20031;-62
2023/07/21 09:45:42;;;;;;;3.15;1.10;;;;;;;;;;6213004;23;20039;-63
2023/07/21 09:48:08;;;;;;;2.50;1.40;;;;;;;;;;6213457;23;20455;-62
2023/07/21 09:50:35;;;;;;;1.55;1.30;;;;;;;;;;6212934;23;20012;-63
2023/07/21 09:53:04;;;;;;;2.78;1.10;;;;;;;;;;6212346;23;20016;-63
2023/07/21 09:55:34;;;;;;;2.03;1.25;;;;;;;;;;6185557;23;20119;-63
2023/07/21 09:58:02;;;;;;;1.73;0.88;;;;;;;;;;6211065;23;20552;-63
2023/07/21 10:00:31;;;;;;;4.47;1.20;;;;;;;;;;6213120;23;20023;-63
2023/07/21 10:02:57;;;;;;;2.03;1.50;;;;;;;;;;6213211;23;20080;-62
2023/07/21 10:05:24;;;;;;;2.63;1.13;;;;;;;;;;6212220;23;20019;-62
2023/07/21 10:07:50;;;;;;;1.98;1.40;;;;;;;;;;6212794;23;20021;-62
2023/07/21 10:10:20;;;;;;;5.18;2.70;;;;;;;;;;6213039;23;20074;-63
2023/07/21 10:12:53;;;;;;;5.15;1.40;;;;;;;;;;6212633;23;20468;-64
2023/07/21 10:15:20;;;;;;;2.60;1.40;;;;;;;;;;6211777;23;20348;-64
2023/07/21 10:17:59;;;;;;;5.00;1.55;;;;;;;;;;6212826;23;20023;-62
2023/07/21 10:20:38;;;;;;;3.35;1.30;;;;;;;;;;6212347;23;20019;-63
2023/07/21 10:23:04;;;;;;;2.03;1.50;;;;;;;;;;6213339;23;20599;-62
2023/07/21 10:25:46;;;;;;;1.23;1.13;;;;;;;;;;6211082;23;20070;-62
2023/07/21 10:28:13;;;;;;;1.40;1.27;;;;;;;;;;6211712;23;20016;-64
2023/07/21 10:30:41;;;;;;;3.25;1.40;;;;;;;;;;6212640;23;20009;-64
2023/07/21 10:33:14;;;;;;;4.75;1.65;;;;;;;;;;6211532;23;20017;-63
2023/07/21 10:35:40;;;;;;;2.97;1.02;;;;;;;;;;6210757;23;20017;-63
2023/07/21 10:38:16;;;;;;;1.98;1.30;;;;;;;;;;6212530;23;20025;-63
2023/07/21 10:40:42;;;;;;;3.15;1.40;;;;;;;;;;6211206;23;20019;-62
2023/07/21 10:43:08;;;;;;;1.63;1.10;;;;;;;;;;6211521;23;20037;-62
2023/07/21 10:45:34;;;;;;;2.17;1.30;;;;;;;;;;6211887;23;20103;-62
2023/07/21 10:48:12;;;;;;;3.65;1.50;;;;;;;;;;6212579;23;20063;-62
2023/07/21 10:50:41;;;;;;;3.75;1.40;;;;;;;;;;6185209;23;20016;-62
2023/07/21 10:53:08;;;;;;;1.55;1.45;;;;;;;;;;6211493;23;20019;-62
2023/07/21 10:55:37;;;;;;;4.63;1.70;;;;;;;;;;6211678;23;20510;-62
2023/07/21 10:58:03;;;;;;;1.88;1.67;;;;;;;;;;6212527;23;20039;-62
2023/07/21 11:00:29;;;;;;;2.47;1.65;;;;;;;;;;6212039;23;20012;-62
2023/07/21 11:02:56;;;;;;;3.80;1.48;;;;;;;;;;6212829;23;20092;-62
2023/07/21 11:05:22;;;;;;;3.85;1.45;;;;;;;;;;6211349;23;20012;-62
2023/07/21 11:07:49;;;;;;;2.25;1.38;;;;;;;;;;6212696;23;20074;-62
2023/07/21 11:10:15;;;;;;;2.78;1.35;;;;;;;;;;6212717;23;20043;-62
2023/07/21 11:12:41;;;;;;;2.30;1.45;;;;;;;;;;6211644;23;20356;-62
2023/07/21 11:15:10;;;;;;;2.00;1.70;;;;;;;;;;6212414;23;20012;-62
2023/07/21 11:17:36;;;;;;;3.35;1.60;;;;;;;;;;6211552;23;20027;-62
2023/07/21 11:20:10;;;;;;;1.63;1.40;;;;;;;;;;6208531;23;20424;-62
2023/07/21 11:22:36;;;;;;;3.75;1.70;;;;;;;;;;6211131;23;20052;-63
2023/07/21 11:25:12;;;;;;;1.92;1.15;;;;;;;;;;6211216;23;20017;-63
2023/07/21 11:27:42;;;;;;;1.88;1.00;;;;;;;;;;6210081;23;20447;-63
2023/07/21 11:30:09;;;;;;;2.25;0.85;;;;;;;;;;6184638;23;20444;-63
2023/07/21 11:32:35;;;;;;;1.88;0.90;;;;;;;;;;6211682;23;20027;-64
2023/07/21 11:35:04;;;;;;;1.98;1.40;;;;;;;;;;6210636;23;20020;-63
2023/07/21 11:37:40;;;;;;;1.75;1.27;;;;;;;;;;6210402;23;20021;-61
2023/07/21 11:40:08;;;;;;;1.27;0.93;;;;;;;;;;6208289;23;20017;-61
2023/07/21 11:42:44;;;;;;;3.45;1.10;;;;;;;;;;6200551;23;20008;-60
2023/07/21 11:45:29;;;;;;;1.67;1.00;;;;;;;;;;6210698;23;20051;-63
2023/07/21 11:47:55;;;;;;;2.25;1.33;;;;;;;;;;6208418;23;20099;-64
2023/07/21 11:50:21;;;;;;;1.63;1.13;;;;;;;;;;6210053;23;20087;-63
2023/07/21 11:52:47;;;;;;;1.05;0.85;;;;;;;;;;6209829;23;20023;-63
2023/07/21 11:55:14;;;;;;;2.30;1.10;;;;;;;;;;6182978;23;20020;-62
2023/07/21 11:57:40;;;;;;;2.25;0.90;;;;;;;;;;6210762;23;20087;-62
2023/07/21 12:00:11;;;;;;;1.70;1.00;;;;;;;;;;6209950;23;20439;-62
2023/07/21 12:02:38;;;;;;;1.05;0.95;;;;;;;;;;6210017;23;20058;-62
2023/07/21 12:05:04;;;;;;;1.73;1.25;;;;;;;;;;6209689;23;20058;-63
2023/07/21 12:07:31;;;;;;;1.23;1.10;;;;;;;;;;6210388;23;20767;-63
2023/07/21 12:09:59;;;;;;;1.00;0.82;;;;;;;;;;6208463;23;20017;-63
2023/07/21 12:12:25;;;;;;;1.38;0.93;;;;;;;;;;6209918;23;20379;-63
2023/07/21 12:14:51;;;;;;;1.55;1.02;;;;;;;;;;6209932;23;20017;-63
2023/07/21 12:17:17;;;;;;;1.38;0.75;;;;;;;;;;6210623;23;20511;-62
2023/07/21 12:19:43;;;;;;;1.45;0.90;;;;;;;;;;6208362;23;20013;-63
2023/07/21 12:22:10;;;;;;;1.38;0.68;;;;;;;;;;6209925;23;20013;-63
2023/07/21 12:24:36;;;;;;;2.28;0.80;;;;;;;;;;6207636;23;20387;-62
2023/07/21 12:27:04;;;;;;;1.85;0.90;;;;;;;;;;6210907;23;20020;-63
2023/07/21 12:29:30;;;;;;;1.10;1.00;;;;;;;;;;6210251;23;20457;-63
2023/07/21 12:31:56;;;;;;;0.80;0.80;;;;;;;;;;6209237;23;20055;-63
2023/07/21 12:34:22;;;;;;;1.88;1.10;;;;;;;;;;6209331;23;20013;-63
2023/07/21 12:36:49;;;;;;;1.73;0.90;;;;;;;;;;6210444;23;20025;-62
2023/07/21 12:39:17;;;;;;;1.23;1.00;;;;;;;;;;6210471;23;20028;-63
2023/07/21 12:41:43;;;;;;;4.88;1.10;;;;;;;;;;6209939;23;20027;-63
2023/07/21 12:44:09;;;;;;;1.38;0.95;;;;;;;;;;6208913;23;20021;-63
2023/07/21 12:46:35;;;;;;;2.10;1.00;;;;;;;;;;6210030;23;20391;-63
2023/07/21 12:49:01;;;;;;;2.78;0.70;;;;;;;;;;6209226;23;20025;-62
2023/07/21 12:51:27;;;;;;;2.53;0.73;;;;;;;;;;6209126;23;20368;-63
2023/07/21 12:53:53;;;;;;;1.40;0.90;;;;;;;;;;6211005;23;20312;-63
2023/07/21 12:56:19;;;;;;;1.15;0.77;;;;;;;;;;6209915;23;20009;-63
2023/07/21 12:58:45;;;;;;;0.88;0.80;;;;;;;;;;6209776;23;20408;-62
2023/07/21 13:01:11;;;;;;;2.88;0.85;;;;;;;;;;6208972;23;20440;-64
2023/07/21 13:03:37;;;;;;;1.70;1.10;;;;;;;;;;6209786;23;20008;-64
2023/07/21 13:06:03;;;;;;;4.22;1.13;;;;;;;;;;6210274;23;20013;-64
2023/07/21 13:08:30;;;;;;;18.52;2.33;;;;;;;;;;6207735;23;20012;-63
2023/07/21 13:10:56;;;;;;;10.38;2.22;;;;;;;;;;6209588;23;20480;-63
2023/07/21 13:13:22;;;;;;;6.25;1.70;;;;;;;;;;6209190;23;20028;-63
2023/07/21 13:15:48;;;;;;;2.15;1.52;;;;;;;;;;6208903;23;20313;-63
2023/07/21 13:18:14;;;;;;;2.03;1.23;;;;;;;;;;6210373;23;20040;-63
2023/07/21 13:20:40;;;;;;;2.70;1.13;;;;;;;;;;6209448;23;20009;-64
2023/07/21 13:23:06;;;;;;;2.47;1.20;;;;;;;;;;6209822;23;20012;-64
2023/07/21 13:25:32;;;;;;;2.42;1.20;;;;;;;;;;6182849;23;20075;-64
2023/07/21 13:27:58;;;;;;;2.20;1.40;;;;;;;;;;6210214;23;20020;-64
2023/07/21 13:30:25;;;;;;;1.30;1.10;;;;;;;;;;6209639;23;20043;-64
2023/07/21 13:32:51;;;;;;;2.97;1.20;;;;;;;;;;6209637;23;20020;-64
2023/07/21 13:35:17;;;;;;;1.70;1.23;;;;;;;;;;6210274;23;20044;-65
2023/07/21 13:37:43;;;;;;;2.25;1.42;;;;;;;;;;6210566;23;20063;-65
2023/07/21 13:40:09;;;;;;;1.40;1.30;;;;;;;;;;6210603;23;20067;-65
2023/07/21 13:42:35;;;;;;;4.43;1.42;;;;;;;;;;6210685;23;20009;-64
2023/07/21 13:45:02;;;;;;;2.25;1.27;;;;;;;;;;6211289;23;20021;-65
2023/07/21 13:47:28;;;;;;;1.60;1.38;;;;;;;;;;6208753;23;20027;-67
2023/07/21 13:49:54;;;;;;;3.08;1.42;;;;;;;;;;6210985;23;20017;-65
2023/07/21 13:52:21;;;;;;;4.20;2.15;;;;;;;;;;6211252;23;20019;-66
2023/07/21 13:54:47;;;;;;;4.10;1.63;;;;;;;;;;6210815;23;20432;-64
2023/07/21 13:57:13;;;;;;;1.98;1.30;;;;;;;;;;6210858;23;20028;-65
2023/07/21 13:59:39;;;;;;;3.08;1.58;;;;;;;;;;6211323;23;20009;-66
2023/07/21 14:02:05;;;;;;;2.90;1.27;;;;;;;;;;6184854;23;20451;-65
2023/07/21 14:04:31;;;;;;;3.70;1.88;;;;;;;;;;6213173;23;20447;-65
2023/07/21 14:06:57;;;;;;;2.67;1.73;;;;;;;;;;6212833;23;20013;-66
2023/07/21 14:09:23;;;;;;;2.30;1.67;;;;;;;;;;6212364;23;20424;-66
2023/07/21 14:11:49;;;;;;;3.17;1.73;;;;;;;;;;6213119;23;20447;-65
2023/07/21 14:14:15;;;;;;;2.53;2.00;;;;;;;;;;6212866;23;20008;-65
2023/07/21 14:16:41;;;;;;;1.70;1.50;;;;;;;;;;6212558;23;20027;-65
2023/07/21 14:19:07;;;;;;;2.05;1.85;;;;;;;;;;6212882;23;20500;-65
2023/07/21 14:21:34;;;;;;;2.60;2.10;;;;;;;;;;6212440;23;20068;-65
2023/07/21 14:24:00;;;;;;;2.75;1.85;;;;;;;;;;6212027;23;20039;-65
2023/07/21 14:26:26;;;;;;;2.95;1.90;;;;;;;;;;6213020;23;20040;-65
2023/07/21 14:28:52;;;;;;;2.28;2.08;;;;;;;;;;6212786;23;20012;-65
2023/07/21 14:31:19;;;;;;;2.67;1.90;;;;;;;;;;6212163;23;20390;-65
2023/07/21 14:33:45;;;;;;;3.00;2.20;;;;;;;;;;6212999;23;20095;-65
2023/07/21 14:36:11;;;;;;;3.55;2.00;;;;;;;;;;6213053;23;20047;-64
2023/07/21 14:38:37;;;;;;;1.77;1.50;;;;;;;;;;6212628;23;20443;-64
2023/07/21 14:41:03;;;;;;;6.30;1.55;;;;;;;;;;6212918;23;20027;-65